createdAt,value
2019-02-24T00:00:56.978Z,56.75
2019-02-24T00:01:57.046Z,57.42
2019-02-24T00:02:56.811Z,57.60
2019-02-24T00:03:56.727Z,56.85
2019-02-24T00:04:56.644Z,56.66
2019-02-24T00:05:56.559Z,56.09
2019-02-24T00:06:56.475Z,55.99
2019-02-24T00:07:56.391Z,56.27
2019-02-24T00:08:56.309Z,55.24
2019-02-24T00:09:56.225Z,54.67
2019-02-24T00:10:56.141Z,55.05
2019-02-24T00:11:56.058Z,55.24
2019-02-24T00:12:55.974Z,55.43
2019-02-24T00:13:55.891Z,56.18
2019-02-24T00:14:55.806Z,56.56
2019-02-24T00:15:55.722Z,56.18
2019-02-24T00:16:55.640Z,56.66
2019-02-24T00:17:55.555Z,56.09
2019-02-24T00:18:55.473Z,56.56
2019-02-24T00:19:55.387Z,56.46
2019-02-24T00:20:55.304Z,55.71
2019-02-24T00:21:55.220Z,56.27
2019-02-24T00:22:55.136Z,56.27
2019-02-24T00:23:55.056Z,55.14
2019-02-24T00:24:54.971Z,54.76
2019-02-24T00:25:54.888Z,53.91
2019-02-24T00:26:54.801Z,53.81
2019-02-24T00:27:54.717Z,54.00
2019-02-24T00:28:54.634Z,55.33
2019-02-24T00:29:54.552Z,54.95
2019-02-24T00:30:54.466Z,54.95
2019-02-24T00:31:54.386Z,54.95
2019-02-24T00:32:54.300Z,55.14
2019-02-24T00:33:54.218Z,55.24
2019-02-24T00:34:54.131Z,54.76
2019-02-24T00:35:54.049Z,55.33
2019-02-24T00:36:53.966Z,55.24
2019-02-24T00:37:53.883Z,54.95
2019-02-24T00:38:53.798Z,56.27
2019-02-24T00:39:53.713Z,56.37
2019-02-24T00:40:53.633Z,56.46
2019-02-24T00:41:53.546Z,56.75
2019-02-24T00:42:53.462Z,57.76
2019-02-24T00:43:53.377Z,59.84
2019-02-24T00:44:53.295Z,61.83
2019-02-24T00:45:53.212Z,63.54
2019-02-24T00:46:53.127Z,65.15
2019-02-24T00:47:53.042Z,63.32
2019-02-24T00:48:52.960Z,64.07
2019-02-24T00:49:52.875Z,65.12
2019-02-24T00:50:52.791Z,65.21
2019-02-24T00:51:52.706Z,65.69
2019-02-24T00:52:52.624Z,65.88
2019-02-24T00:53:52.540Z,65.69
2019-02-24T00:54:52.455Z,65.78
2019-02-24T00:55:52.371Z,65.50
2019-02-24T00:56:52.287Z,65.88
2019-02-24T00:57:52.204Z,67.20
2019-02-24T00:58:52.119Z,65.78
2019-02-24T00:59:52.035Z,67.20
2019-02-24T01:00:51.950Z,67.68
2019-02-24T01:01:51.866Z,69.38
2019-02-24T01:02:51.780Z,70.86
2019-02-24T01:03:51.697Z,71.33
2019-02-24T01:04:51.613Z,71.33
2019-02-24T01:05:51.531Z,71.52
2019-02-24T01:06:51.446Z,71.71
2019-02-24T01:07:51.360Z,71.14
2019-02-24T01:08:51.275Z,70.57
2019-02-24T01:09:51.192Z,70.57
2019-02-24T01:10:51.108Z,70.67
2019-02-24T01:11:51.025Z,71.33
2019-02-24T01:12:50.939Z,71.04
2019-02-24T01:13:50.854Z,71.90
2019-02-24T01:14:50.770Z,72.47
2019-02-24T01:15:50.687Z,73.22
2019-02-24T01:16:50.599Z,73.94
2019-02-24T01:17:50.518Z,74.07
2019-02-24T01:18:50.432Z,73.98
2019-02-24T01:19:50.345Z,75.74
2019-02-24T01:20:50.262Z,75.74
2019-02-24T01:21:50.177Z,74.69
2019-02-24T01:22:50.094Z,75.64
2019-02-24T01:23:50.006Z,75.83
2019-02-24T01:24:49.922Z,76.68
2019-02-24T01:25:49.836Z,76.97
2019-02-24T01:26:49.751Z,76.12
2019-02-24T01:27:49.667Z,75.55
2019-02-24T01:28:49.582Z,76.02
2019-02-24T01:29:49.497Z,75.55
2019-02-24T01:30:49.413Z,77.06
2019-02-24T01:31:49.325Z,77.82
2019-02-24T01:32:49.240Z,78.29
2019-02-24T01:33:49.157Z,77.53
2019-02-24T01:34:49.070Z,76.78
2019-02-24T01:35:48.985Z,77.63
2019-02-24T01:36:48.902Z,78.48
2019-02-24T01:37:48.818Z,78.20
2019-02-24T01:38:48.729Z,79.05
2019-02-24T01:39:48.644Z,79.90
2019-02-24T01:40:48.561Z,79.43
2019-02-24T01:41:48.475Z,79.99
2019-02-24T01:42:48.394Z,79.33
2019-02-24T01:43:48.302Z,80.08
2019-02-24T01:44:48.217Z,79.71
2019-02-24T01:45:48.132Z,79.05
2019-02-24T01:46:48.047Z,80.27
2019-02-24T01:47:47.961Z,80.75
2019-02-24T01:48:47.876Z,79.99
2019-02-24T01:49:47.790Z,79.33
2019-02-24T01:50:47.704Z,79.61
2019-02-24T01:51:47.618Z,79.52
2019-02-24T01:52:47.534Z,78.95
2019-02-24T01:53:47.450Z,79.24
2019-02-24T01:54:47.361Z,79.52
2019-02-24T01:55:47.276Z,79.99
2019-02-24T01:56:47.191Z,80.08
2019-02-24T01:57:47.105Z,80.27
2019-02-24T01:58:47.019Z,80.08
2019-02-24T01:59:46.934Z,79.71
2019-02-24T02:00:46.849Z,79.33
2019-02-24T02:01:46.765Z,79.43
2019-02-24T02:02:46.675Z,79.61
2019-02-24T02:03:46.592Z,79.05
2019-02-24T02:04:46.507Z,79.71
2019-02-24T02:05:46.420Z,79.33
2019-02-24T02:06:46.333Z,78.39
2019-02-24T02:07:46.248Z,80.08
2019-02-24T02:08:46.161Z,80.94
2019-02-24T02:09:46.078Z,81.88
2019-02-24T02:10:45.991Z,81.98
2019-02-24T02:11:45.905Z,82.03
2019-02-24T02:12:45.819Z,82.92
2019-02-24T02:13:45.734Z,83.17
2019-02-24T02:14:45.647Z,82.12
2019-02-24T02:15:45.562Z,81.93
2019-02-24T02:16:45.477Z,81.46
2019-02-24T02:17:45.391Z,82.22
2019-02-24T02:18:45.304Z,81.46
2019-02-24T02:19:45.218Z,81.65
2019-02-24T02:20:45.135Z,82.03
2019-02-24T02:21:45.049Z,81.84
2019-02-24T02:22:44.972Z,82.03
2019-02-24T02:23:44.876Z,81.93
2019-02-24T02:24:44.791Z,81.84
2019-02-24T02:25:44.705Z,81.93
2019-02-24T02:26:44.618Z,82.79
2019-02-24T02:27:44.534Z,83.26
2019-02-24T02:28:44.447Z,83.26
2019-02-24T02:29:44.361Z,84.39
2019-02-24T02:30:44.274Z,83.92
2019-02-24T02:31:44.189Z,84.49
2019-02-24T02:32:44.104Z,83.17
2019-02-24T02:33:44.017Z,84.49
2019-02-24T02:34:43.934Z,84.86
2019-02-24T02:35:43.847Z,85.05
2019-02-24T02:36:43.859Z,84.96
2019-02-24T02:37:43.673Z,85.15
2019-02-24T02:38:43.585Z,85.34
2019-02-24T02:41:27.154Z,84.49
2019-02-24T02:42:27.168Z,84.77
2019-02-24T02:43:26.983Z,85.34
2019-02-24T02:44:26.912Z,84.86
2019-02-24T02:45:26.813Z,84.96
2019-02-24T02:46:26.724Z,84.39
2019-02-24T02:47:26.640Z,84.20
2019-02-24T02:48:26.551Z,84.86
2019-02-24T02:49:26.477Z,84.49
2019-02-24T02:50:26.379Z,84.77
2019-02-24T02:51:26.296Z,85.81
2019-02-24T02:52:26.211Z,86.76
2019-02-24T02:53:26.123Z,86.94
2019-02-24T02:54:26.036Z,86.47
2019-02-24T02:55:25.950Z,86.00
2019-02-24T02:56:25.862Z,85.72
2019-02-24T02:57:25.783Z,85.34
2019-02-24T02:58:25.690Z,84.30
2019-02-24T02:59:25.614Z,84.20
2019-02-24T03:00:25.518Z,84.86
2019-02-24T03:01:25.432Z,85.62
2019-02-24T03:02:25.348Z,85.34
2019-02-24T03:03:25.263Z,84.86
2019-02-24T03:04:25.178Z,85.62
2019-02-24T03:05:25.088Z,86.94
2019-02-24T03:06:25.000Z,85.53
2019-02-24T03:07:24.918Z,84.86
2019-02-24T03:08:24.834Z,84.20
2019-02-24T03:09:24.744Z,83.64
2019-02-24T03:10:24.661Z,84.01
2019-02-24T03:11:24.571Z,83.26
2019-02-24T03:12:24.484Z,84.39
2019-02-24T03:13:24.398Z,84.68
2019-02-24T03:14:24.313Z,84.01
2019-02-24T03:15:24.227Z,83.92
2019-02-24T03:16:24.141Z,83.73
2019-02-24T03:17:24.054Z,84.39
2019-02-24T03:18:23.975Z,85.81
2019-02-24T03:19:23.883Z,86.57
2019-02-24T03:20:23.795Z,86.76
2019-02-24T03:21:23.708Z,87.04
2019-02-24T03:22:23.623Z,86.94
2019-02-24T03:23:23.537Z,87.42
2019-02-24T03:24:23.501Z,87.79
2019-02-24T03:25:23.365Z,86.47
2019-02-24T03:26:23.279Z,84.86
2019-02-24T03:27:23.194Z,85.15
2019-02-24T03:28:23.106Z,84.77
2019-02-24T03:29:23.021Z,85.72
2019-02-24T03:30:22.934Z,86.10
2019-02-24T03:31:22.855Z,85.15
2019-02-24T03:32:22.761Z,84.96
2019-02-24T03:33:22.680Z,85.15
2019-02-24T03:34:22.589Z,85.05
2019-02-24T03:35:22.502Z,86.00
2019-02-24T03:36:22.418Z,86.94
2019-02-24T03:37:22.330Z,86.38
2019-02-24T03:38:22.245Z,86.10
2019-02-24T03:39:22.159Z,85.05
2019-02-24T03:40:22.074Z,85.53
2019-02-24T03:41:21.993Z,86.76
2019-02-24T03:42:21.901Z,87.42
2019-02-24T03:43:21.812Z,87.13
2019-02-24T03:44:21.726Z,86.00
2019-02-24T03:45:21.650Z,85.24
2019-02-24T03:46:21.557Z,85.72
2019-02-24T03:47:21.469Z,84.77
2019-02-24T03:48:21.384Z,84.30
2019-02-24T03:49:21.295Z,84.77
2019-02-24T03:50:21.210Z,84.20
2019-02-24T03:51:21.223Z,84.30
2019-02-24T03:52:21.038Z,84.39
2019-02-24T03:53:20.952Z,84.49
2019-02-24T03:54:20.867Z,85.72
2019-02-24T03:55:20.780Z,85.15
2019-02-24T03:56:20.694Z,84.86
2019-02-24T03:57:20.607Z,84.96
2019-02-24T03:58:20.526Z,84.86
2019-02-24T03:59:20.435Z,83.64
2019-02-24T04:00:20.350Z,83.36
2019-02-24T04:01:20.263Z,82.12
2019-02-24T04:02:20.177Z,81.93
2019-02-24T04:03:20.092Z,78.20
2019-02-24T04:04:20.006Z,74.88
2019-02-24T04:05:19.920Z,75.93
2019-02-24T04:06:19.836Z,73.37
2019-02-24T04:07:19.747Z,73.66
2019-02-24T04:08:19.660Z,75.64
2019-02-24T04:09:19.574Z,76.02
2019-02-24T04:10:19.489Z,74.98
2019-02-24T04:11:19.404Z,74.60
2019-02-24T04:12:19.319Z,74.88
2019-02-24T04:13:19.231Z,76.97
2019-02-24T04:14:19.145Z,77.53
2019-02-24T04:15:19.062Z,78.39
2019-02-24T04:16:18.977Z,79.14
2019-02-24T04:17:18.897Z,81.03
2019-02-24T04:18:18.800Z,81.13
2019-02-24T04:19:18.714Z,80.37
2019-02-24T04:20:18.628Z,81.88
2019-02-24T04:21:18.546Z,81.88
2019-02-24T04:22:18.463Z,82.50
2019-02-24T04:23:18.371Z,83.17
2019-02-24T04:24:18.283Z,83.45
2019-02-24T04:25:18.207Z,83.07
2019-02-24T04:26:18.115Z,83.07
2019-02-24T04:27:18.026Z,83.07
2019-02-24T04:28:17.943Z,83.54
2019-02-24T04:29:24.500Z,84.39
2019-02-24T04:30:17.781Z,84.39
2019-02-24T04:31:17.682Z,83.07
2019-02-24T04:32:17.595Z,82.22
2019-02-24T04:33:17.510Z,83.26
2019-02-24T04:34:17.424Z,84.77
2019-02-24T04:35:17.343Z,85.81
2019-02-24T04:36:17.249Z,85.72
2019-02-24T04:37:17.212Z,85.24
2019-02-24T04:38:17.079Z,85.62
2019-02-24T04:39:16.993Z,85.15
2019-02-24T04:40:16.905Z,86.00
2019-02-24T04:41:16.818Z,86.94
2019-02-24T04:42:16.739Z,86.85
2019-02-24T04:43:16.647Z,86.38
2019-02-24T04:44:16.571Z,86.57
2019-02-24T04:45:16.474Z,86.85
2019-02-24T04:46:16.388Z,86.85
2019-02-24T04:47:16.302Z,86.57
2019-02-24T04:48:16.214Z,86.66
2019-02-24T04:49:16.128Z,86.94
2019-02-24T04:50:16.043Z,86.47
2019-02-24T04:51:15.958Z,85.91
2019-02-24T04:52:15.869Z,85.43
2019-02-24T04:53:15.783Z,85.34
2019-02-24T04:54:15.697Z,87.51
2019-02-24T04:55:15.610Z,87.23
2019-02-24T04:56:15.523Z,86.57
2019-02-24T04:57:15.439Z,87.23
2019-02-24T04:58:15.352Z,88.93
2019-02-24T04:59:15.266Z,88.27
2019-02-24T05:00:15.180Z,88.17
2019-02-24T05:01:15.093Z,88.17
2019-02-24T05:02:15.007Z,87.70
2019-02-24T05:03:14.979Z,87.61
2019-02-24T05:04:14.938Z,87.51
2019-02-24T05:05:14.747Z,86.76
2019-02-24T05:06:14.661Z,86.10
2019-02-24T05:07:14.574Z,84.30
2019-02-24T05:08:14.487Z,85.81
2019-02-24T05:09:14.402Z,86.66
2019-02-24T05:10:14.315Z,84.68
2019-02-24T05:11:14.230Z,85.43
2019-02-24T05:12:14.141Z,86.19
2019-02-24T05:13:14.056Z,86.10
2019-02-24T05:14:13.968Z,84.96
2019-02-24T05:15:13.883Z,84.30
2019-02-24T05:16:13.797Z,85.72
2019-02-24T05:17:13.710Z,86.00
2019-02-24T05:18:13.624Z,84.96
2019-02-24T05:19:13.540Z,86.76
2019-02-24T05:20:13.455Z,87.70
2019-02-24T05:21:13.365Z,87.32
2019-02-24T05:22:13.277Z,86.66
2019-02-24T05:23:13.193Z,86.10
2019-02-24T05:24:13.105Z,86.19
2019-02-24T05:25:13.019Z,85.62
2019-02-24T05:26:12.942Z,86.10
2019-02-24T05:27:12.846Z,85.24
2019-02-24T05:28:12.761Z,86.10
2019-02-24T05:29:12.679Z,86.57
2019-02-24T05:30:12.586Z,86.57
2019-02-24T05:31:12.502Z,86.76
2019-02-24T05:32:12.414Z,86.57
2019-02-24T05:33:12.327Z,86.94
2019-02-24T05:34:12.242Z,87.13
2019-02-24T05:35:12.155Z,87.23
2019-02-24T05:36:12.072Z,86.76
2019-02-24T05:37:11.982Z,85.91
2019-02-24T05:38:11.896Z,84.96
2019-02-24T05:39:11.809Z,85.34
2019-02-24T05:40:11.728Z,86.10
2019-02-24T05:41:11.747Z,87.51
2019-02-24T05:42:11.553Z,88.17
2019-02-24T05:43:11.464Z,87.51
2019-02-24T05:44:11.378Z,87.61
2019-02-24T05:45:11.290Z,87.32
2019-02-24T05:46:11.205Z,86.76
2019-02-24T05:47:11.119Z,86.76
2019-02-24T05:48:11.040Z,86.57
2019-02-24T05:49:10.948Z,86.38
2019-02-24T05:50:10.876Z,86.57
2019-02-24T05:51:10.777Z,85.24
2019-02-24T05:52:10.687Z,84.86
2019-02-24T05:53:10.600Z,84.11
2019-02-24T05:54:10.517Z,84.20
2019-02-24T05:55:10.428Z,84.30
2019-02-24T05:56:10.343Z,83.54
2019-02-24T05:57:10.255Z,84.58
2019-02-24T05:58:10.168Z,87.32
2019-02-24T05:59:10.082Z,88.08
2019-02-24T06:00:09.995Z,87.61
2019-02-24T06:01:09.907Z,86.94
2019-02-24T06:02:09.832Z,86.66
2019-02-24T06:03:09.746Z,85.72
2019-02-24T06:04:09.648Z,87.04
2019-02-24T06:05:09.563Z,86.38
2019-02-24T06:06:09.485Z,85.91
2019-02-24T06:07:09.389Z,85.15
2019-02-24T06:08:09.302Z,84.20
2019-02-24T06:09:09.215Z,84.49
2019-02-24T06:10:09.134Z,82.79
2019-02-24T06:11:09.044Z,81.84
2019-02-24T06:12:08.956Z,81.65
2019-02-24T06:13:08.870Z,81.27
2019-02-24T06:14:08.784Z,80.62
2019-02-24T06:15:08.701Z,80.14
2019-02-24T06:16:08.615Z,79.29
2019-02-24T06:17:08.625Z,79.10
2019-02-24T06:18:08.437Z,79.10
2019-02-24T06:19:08.351Z,78.53
2019-02-24T06:20:08.264Z,79.29
2019-02-24T06:21:08.179Z,79.00
2019-02-24T06:22:08.092Z,78.91
2019-02-24T06:23:08.004Z,78.16
2019-02-24T06:24:07.920Z,78.81
2019-02-24T06:25:07.834Z,78.81
2019-02-24T06:26:07.746Z,81.37
2019-02-24T06:27:07.660Z,81.65
2019-02-24T06:28:07.572Z,80.80
2019-02-24T06:29:07.486Z,78.91
2019-02-24T06:30:07.403Z,78.29
2019-02-24T06:31:07.314Z,75.64
2019-02-24T06:32:07.228Z,72.80
2019-02-24T06:33:07.144Z,73.75
2019-02-24T06:34:07.054Z,72.90
2019-02-24T06:35:06.969Z,71.67
2019-02-24T06:36:06.884Z,72.14
2019-02-24T06:37:06.800Z,71.95
2019-02-24T06:38:06.711Z,71.86
2019-02-24T06:39:06.622Z,71.01
2019-02-24T06:40:06.543Z,69.97
2019-02-24T06:41:06.449Z,69.06
2019-02-24T06:42:06.364Z,67.74
2019-02-24T06:43:06.278Z,66.69
2019-02-24T06:44:06.195Z,66.88
2019-02-24T06:45:06.108Z,68.96
2019-02-24T06:46:06.024Z,70.63
2019-02-24T06:47:05.934Z,72.14
2019-02-24T06:48:05.851Z,74.60
2019-02-24T06:49:05.761Z,75.74
2019-02-24T06:50:05.682Z,78.01
2019-02-24T06:51:05.591Z,79.00
2019-02-24T06:52:05.557Z,79.67
2019-02-24T06:53:05.416Z,79.14
2019-02-24T06:54:05.330Z,79.14
2019-02-24T06:55:05.244Z,78.01
2019-02-24T06:56:05.157Z,78.58
2019-02-24T06:57:05.072Z,79.05
2019-02-24T06:58:04.988Z,78.86
2019-02-24T06:59:04.900Z,79.71
2019-02-24T07:00:13.590Z,79.99
2019-02-24T07:01:04.728Z,80.84
2019-02-24T07:02:04.642Z,79.67
2019-02-24T07:03:04.655Z,80.94
2019-02-24T07:04:04.471Z,81.03
2019-02-24T07:05:04.382Z,81.84
2019-02-24T07:06:04.296Z,80.65
2019-02-24T07:07:04.212Z,81.88
2019-02-24T07:08:04.125Z,81.79
2019-02-24T07:09:04.038Z,81.88
2019-02-24T07:10:03.953Z,81.98
2019-02-24T07:11:03.874Z,81.32
2019-02-24T07:12:03.781Z,78.95
2019-02-24T07:13:03.696Z,77.15
2019-02-24T07:14:03.659Z,77.06
2019-02-24T07:15:03.524Z,77.82
2019-02-24T07:16:03.445Z,78.10
2019-02-24T07:17:03.355Z,77.82
2019-02-24T07:18:03.266Z,75.83
2019-02-24T07:19:03.180Z,74.32
2019-02-24T07:20:03.093Z,73.37
2019-02-24T07:21:03.008Z,74.41
2019-02-24T07:22:02.923Z,73.37
2019-02-24T07:23:02.838Z,71.14
2019-02-24T07:24:02.851Z,72.62
2019-02-24T07:25:02.665Z,72.80
2019-02-24T07:26:02.581Z,72.99
2019-02-24T07:27:02.493Z,73.47
2019-02-24T07:28:02.407Z,73.37
2019-02-24T07:29:02.323Z,74.32
2019-02-24T07:30:02.237Z,74.04
2019-02-24T07:31:02.150Z,74.13
2019-02-24T07:32:02.066Z,74.41
2019-02-24T07:33:01.979Z,74.22
2019-02-24T07:34:01.896Z,75.31
2019-02-24T07:35:01.810Z,76.97
2019-02-24T07:36:01.723Z,75.55
2019-02-24T07:37:01.668Z,74.41
2019-02-24T07:38:01.554Z,73.94
2019-02-24T07:39:01.467Z,72.66
2019-02-24T07:40:01.382Z,73.41
2019-02-24T07:41:01.295Z,72.75
2019-02-24T07:42:01.211Z,72.37
2019-02-24T07:43:01.124Z,71.42
2019-02-24T07:44:01.040Z,73.13
2019-02-24T07:45:00.956Z,74.17
2019-02-24T07:46:00.871Z,72.09
2019-02-24T07:47:00.784Z,71.90
2019-02-24T07:48:00.700Z,71.23
2019-02-24T07:49:00.612Z,71.42
2019-02-24T07:50:00.529Z,70.86
2019-02-24T07:51:00.444Z,70.48
2019-02-24T07:52:00.357Z,71.42
2019-02-24T07:53:00.274Z,70.67
2019-02-24T07:54:00.189Z,70.67
2019-02-24T07:55:00.113Z,69.34
2019-02-24T07:56:00.021Z,67.68
2019-02-24T07:56:59.935Z,68.05
2019-02-24T07:57:59.849Z,67.39
2019-02-24T07:58:59.765Z,67.58
2019-02-24T07:59:59.679Z,67.58
2019-02-24T08:00:59.594Z,68.62
2019-02-24T08:01:59.516Z,68.05
2019-02-24T08:02:59.428Z,69.28
2019-02-24T08:03:59.342Z,67.39
2019-02-24T08:04:59.259Z,65.06
2019-02-24T08:05:59.178Z,63.45
2019-02-24T08:06:59.091Z,64.77
2019-02-24T08:07:59.006Z,67.24
2019-02-24T08:08:58.922Z,67.71
2019-02-24T08:09:58.838Z,67.14
2019-02-24T08:10:58.756Z,64.49
2019-02-24T08:11:58.671Z,63.16
2019-02-24T08:12:58.585Z,62.62
2019-02-24T08:13:58.503Z,61.77
2019-02-24T08:14:58.420Z,61.68
2019-02-24T08:15:58.335Z,62.53
2019-02-24T08:16:58.252Z,62.62
2019-02-24T08:17:58.166Z,62.62
2019-02-24T08:18:58.084Z,61.30
2019-02-24T08:19:58.004Z,61.58
2019-02-24T08:20:57.999Z,62.82
2019-02-24T08:21:57.835Z,63.60
2019-02-24T08:22:57.750Z,61.80
2019-02-24T08:23:57.667Z,59.72
2019-02-24T08:24:57.587Z,58.39
2019-02-24T08:25:57.501Z,56.97
2019-02-24T08:26:57.418Z,56.21
2019-02-24T08:27:57.337Z,56.30
2019-02-24T08:28:57.253Z,56.68
2019-02-24T08:29:57.173Z,55.76
2019-02-24T08:30:57.088Z,55.19
2019-02-24T08:31:57.004Z,56.34
2019-02-24T08:32:56.924Z,57.85
2019-02-24T08:33:56.840Z,58.14
2019-02-24T08:34:56.757Z,57.95
2019-02-24T08:35:56.675Z,57.85
2019-02-24T08:36:56.592Z,58.51
2019-02-24T08:37:56.510Z,57.19
2019-02-24T08:38:56.429Z,56.81
2019-02-24T08:39:56.346Z,57.28
2019-02-24T08:40:56.264Z,58.42
2019-02-24T08:41:56.182Z,59.84
2019-02-24T08:42:56.099Z,60.22
2019-02-24T08:43:56.016Z,60.22
2019-02-24T08:44:55.936Z,58.23
2019-02-24T08:45:55.853Z,56.34
2019-02-24T08:46:55.772Z,55.32
2019-02-24T08:47:55.690Z,56.93
2019-02-24T08:48:55.608Z,58.36
2019-02-24T08:49:55.527Z,55.70
2019-02-24T08:50:55.444Z,54.37
2019-02-24T08:51:55.363Z,53.99
2019-02-24T08:52:55.281Z,53.14
2019-02-24T08:53:55.201Z,54.08
2019-02-24T08:54:55.118Z,53.64
2019-02-24T08:55:55.037Z,53.45
2019-02-24T08:56:55.711Z,52.31
2019-02-24T08:57:54.877Z,50.98
2019-02-24T08:58:54.794Z,49.18
2019-02-24T08:59:54.715Z,47.66
2019-02-24T09:00:54.631Z,48.99
2019-02-24T09:01:54.550Z,50.60
2019-02-24T09:02:54.469Z,52.40
2019-02-24T09:03:54.388Z,52.50
2019-02-24T09:04:54.309Z,50.03
2019-02-24T09:05:54.225Z,46.33
2019-02-24T09:06:54.148Z,44.43
2019-02-24T09:07:54.064Z,44.34
2019-02-24T09:08:53.985Z,44.34
2019-02-24T09:09:53.905Z,44.07
2019-02-24T09:10:53.823Z,44.93
2019-02-24T09:11:53.742Z,45.21
2019-02-24T09:12:53.661Z,45.12
2019-02-24T09:13:53.583Z,44.45
2019-02-24T09:14:53.502Z,43.12
2019-02-24T09:15:53.527Z,42.36
2019-02-24T09:16:53.340Z,42.67
2019-02-24T09:17:53.264Z,41.62
2019-02-24T09:18:53.198Z,42.19
2019-02-24T09:19:53.097Z,42.67
2019-02-24T09:20:53.018Z,42.29
2019-02-24T09:21:52.937Z,43.24
2019-02-24T09:22:52.861Z,43.24
2019-02-24T09:23:52.831Z,42.95
2019-02-24T09:24:52.697Z,42.00
2019-02-24T09:25:52.617Z,41.53
2019-02-24T09:26:52.536Z,41.62
2019-02-24T09:27:52.456Z,41.43
2019-02-24T09:28:52.376Z,42.00
2019-02-24T09:29:52.298Z,42.10
2019-02-24T09:31:00.421Z,41.62
2019-02-24T09:31:52.136Z,40.58
2019-02-24T09:32:52.055Z,40.95
2019-02-24T09:33:51.978Z,42.47
2019-02-24T09:34:51.897Z,42.38
2019-02-24T09:35:51.903Z,41.91
2019-02-24T09:36:51.737Z,41.72
2019-02-24T09:37:51.658Z,41.14
2019-02-24T09:38:51.579Z,40.39
2019-02-24T09:39:51.497Z,40.88
2019-02-24T09:40:51.416Z,39.17
2019-02-24T09:41:51.339Z,38.12
2019-02-24T09:42:51.259Z,38.60
2019-02-24T09:43:51.178Z,39.93
2019-02-24T09:44:51.098Z,40.03
2019-02-24T09:45:51.021Z,38.89
2019-02-24T09:46:50.943Z,38.41
2019-02-24T09:47:50.860Z,38.03
2019-02-24T09:48:50.785Z,38.22
2019-02-24T09:49:50.703Z,37.76
2019-02-24T09:50:50.624Z,36.79
2019-02-24T09:51:52.317Z,35.94
2019-02-24T09:52:50.464Z,36.81
2019-02-24T09:53:50.384Z,36.15
2019-02-24T09:54:50.305Z,35.19
2019-02-24T09:55:50.227Z,35.67
2019-02-24T09:56:50.147Z,36.24
2019-02-24T09:57:50.070Z,35.77
2019-02-24T09:58:49.991Z,36.05
2019-02-24T09:59:49.912Z,37.57
2019-02-24T10:00:49.834Z,40.14
2019-02-24T10:01:49.757Z,39.69
2019-02-24T10:02:49.679Z,40.16
2019-02-24T10:03:49.598Z,39.51
2019-02-24T10:04:49.519Z,38.09
2019-02-24T10:05:49.446Z,36.10
2019-02-24T10:06:49.365Z,35.06
2019-02-24T10:07:49.287Z,35.25
2019-02-24T10:08:49.209Z,34.41
2019-02-24T10:09:49.133Z,34.14
2019-02-24T10:10:49.054Z,33.76
2019-02-24T10:11:48.977Z,33.01
2019-02-24T10:12:48.899Z,32.65
2019-02-24T10:13:51.104Z,32.65
2019-02-24T10:14:48.748Z,31.31
2019-02-24T10:15:48.669Z,31.40
2019-02-24T10:16:48.594Z,31.58
2019-02-24T10:17:48.517Z,32.53
2019-02-24T10:18:48.442Z,32.81
2019-02-24T10:19:48.365Z,32.61
2019-02-24T10:20:48.290Z,32.06
2019-02-24T10:21:48.215Z,32.14
2019-02-24T10:22:48.138Z,31.37
2019-02-24T10:23:48.063Z,30.99
2019-02-24T10:24:47.990Z,31.39
2019-02-24T10:25:47.913Z,31.96
2019-02-24T10:26:47.841Z,31.29
2019-02-24T10:27:47.762Z,30.63
2019-02-24T10:28:47.902Z,30.63
2019-02-24T10:29:47.615Z,30.72
2019-02-24T10:30:47.539Z,29.66
2019-02-24T10:31:47.465Z,29.66
2019-02-24T10:32:47.389Z,29.66
2019-02-24T10:33:47.314Z,31.09
2019-02-24T10:34:47.238Z,30.32
2019-02-24T10:35:47.164Z,30.42
2019-02-24T10:36:47.088Z,31.18
2019-02-24T10:37:47.027Z,31.37
2019-02-24T10:38:46.940Z,31.76
2019-02-24T10:39:46.865Z,32.04
2019-02-24T10:40:46.793Z,33.09
2019-02-24T10:41:46.717Z,33.37
2019-02-24T10:42:46.641Z,33.47
2019-02-24T10:43:46.567Z,33.09
2019-02-24T10:44:46.490Z,32.31
2019-02-24T10:45:46.416Z,31.84
2019-02-24T10:46:46.341Z,32.50
2019-02-24T10:47:46.265Z,34.61
2019-02-24T10:48:46.191Z,34.73
2019-02-24T10:49:46.114Z,35.02
2019-02-24T10:50:46.040Z,33.58
2019-02-24T10:51:45.964Z,33.58
2019-02-24T10:52:45.893Z,33.29
2019-02-24T10:53:45.818Z,33.49
2019-02-24T10:54:45.740Z,34.55
2019-02-24T10:55:45.664Z,33.98
2019-02-24T10:56:45.592Z,33.70
2019-02-24T10:57:45.516Z,32.65
2019-02-24T10:58:45.441Z,31.50
2019-02-24T10:59:45.366Z,33.04
2019-02-24T11:00:45.293Z,32.18
2019-02-24T11:01:45.230Z,31.51
2019-02-24T11:02:45.144Z,31.13
2019-02-24T11:03:45.071Z,30.46
2019-02-24T11:04:45.004Z,29.70
2019-02-24T11:05:45.024Z,29.80
2019-02-24T11:06:44.850Z,29.02
2019-02-24T11:07:44.781Z,29.80
2019-02-24T11:08:44.702Z,31.40
2019-02-24T11:09:44.630Z,32.36
2019-02-24T11:10:44.557Z,31.29
2019-02-24T11:11:44.489Z,30.93
2019-02-24T11:12:44.409Z,31.02
2019-02-24T11:13:44.337Z,31.99
2019-02-24T11:14:44.264Z,30.18
2019-02-24T11:15:44.190Z,29.51
2019-02-24T11:16:44.116Z,28.86
2019-02-24T11:17:44.044Z,28.97
2019-02-24T11:18:43.972Z,28.77
2019-02-24T11:19:43.897Z,28.77
2019-02-24T11:20:43.825Z,28.39
2019-02-24T11:21:43.752Z,29.25
2019-02-24T11:22:43.680Z,30.51
2019-02-24T11:23:43.606Z,30.61
2019-02-24T11:24:43.534Z,29.06
2019-02-24T11:25:43.462Z,28.59
2019-02-24T11:26:43.390Z,29.27
2019-02-24T11:27:43.316Z,28.87
2019-02-24T11:28:43.244Z,28.76
2019-02-24T11:29:43.173Z,29.33
2019-02-24T11:30:43.101Z,29.92
2019-02-24T11:31:43.031Z,30.11
2019-02-24T11:32:42.958Z,30.11
2019-02-24T11:33:42.885Z,29.91
2019-02-24T11:34:42.812Z,30.88
2019-02-24T11:35:42.743Z,30.49
2019-02-24T11:36:42.668Z,31.07
2019-02-24T11:37:42.598Z,31.93
2019-02-24T11:38:42.527Z,32.42
2019-02-24T11:39:42.454Z,31.38
2019-02-24T11:40:42.379Z,30.05
2019-02-24T11:41:42.309Z,30.24
2019-02-24T11:42:42.237Z,30.91
2019-02-24T11:43:42.165Z,30.64
2019-02-24T11:44:42.094Z,29.01
2019-02-24T11:45:42.022Z,29.69
2019-02-24T11:46:41.952Z,30.65
2019-02-24T11:47:41.880Z,29.79
2019-02-24T11:48:41.810Z,30.00
2019-02-24T11:49:41.740Z,29.71
2019-02-24T11:50:41.669Z,29.16
2019-02-24T11:51:41.603Z,27.82
2019-02-24T11:52:41.530Z,27.44
2019-02-24T11:53:41.458Z,28.78
2019-02-24T11:54:41.389Z,28.61
2019-02-24T11:55:41.320Z,28.15
2019-02-24T11:56:41.250Z,26.50
2019-02-24T11:57:41.181Z,26.31
2019-02-24T11:58:41.112Z,26.13
2019-02-24T11:59:41.043Z,25.45
2019-02-24T12:00:40.977Z,24.87
2019-02-24T12:01:47.228Z,25.35
2019-02-24T12:02:41.818Z,25.45
2019-02-24T12:03:40.775Z,25.07
2019-02-24T12:04:40.707Z,25.07
2019-02-24T12:05:40.640Z,24.99
2019-02-24T12:06:40.573Z,24.41
2019-02-24T12:07:40.506Z,24.70
2019-02-24T12:08:40.440Z,24.02
2019-02-24T12:09:40.383Z,24.66
2019-02-24T12:10:40.307Z,25.42
2019-02-24T12:11:40.241Z,26.35
2019-02-24T12:12:40.179Z,27.12
2019-02-24T12:13:40.109Z,27.82
2019-02-24T12:14:40.045Z,28.03
2019-02-24T12:15:39.976Z,26.95
2019-02-24T12:16:39.911Z,27.03
2019-02-24T12:17:39.846Z,27.79
2019-02-24T12:18:39.777Z,28.77
2019-02-24T12:19:39.716Z,28.12
2019-02-24T12:20:39.646Z,27.16
2019-02-24T12:21:39.579Z,26.09
2019-02-24T12:22:39.515Z,26.97
2019-02-24T12:23:39.446Z,26.97
2019-02-24T12:24:39.381Z,27.66
2019-02-24T12:25:39.316Z,28.16
2019-02-24T12:26:39.250Z,27.71
2019-02-24T12:27:39.198Z,26.27
2019-02-24T12:28:39.118Z,25.67
2019-02-24T12:29:39.056Z,26.62
2019-02-24T12:30:38.990Z,26.05
2019-02-24T12:31:38.923Z,24.79
2019-02-24T12:32:38.856Z,25.06
2019-02-24T12:33:38.794Z,26.31
2019-02-24T12:34:38.728Z,26.61
2019-02-24T12:35:38.659Z,25.65
2019-02-24T12:36:38.594Z,24.38
2019-02-24T12:37:38.531Z,26.32
2019-02-24T12:38:38.466Z,25.76
2019-02-24T12:39:38.400Z,26.62
2019-02-24T12:40:38.338Z,24.99
2019-02-24T12:41:38.270Z,24.77
2019-02-24T12:42:38.204Z,26.15
2019-02-24T12:43:38.142Z,26.25
2019-02-24T12:44:38.075Z,25.29
2019-02-24T12:47:10.729Z,24.58
2019-02-24T12:48:10.664Z,25.06
2019-02-24T12:49:10.599Z,25.84
2019-02-24T12:50:10.533Z,25.26
2019-02-24T12:51:10.469Z,25.06
2019-02-24T12:52:10.404Z,25.06
2019-02-24T12:53:10.336Z,25.84
2019-02-24T12:54:10.272Z,26.24
2019-02-24T12:55:10.208Z,25.56